Time;durP1;ratioP1;P1;durP2;ratioP2;P2;SDS_P1;SDS_P2;PMS_P1;PMS_P2;Temp;Humidity;BMP_temperature;BMP_pressure;BME280_temperature;BME280_humidity;BME280_pressure;Samples;Min_cycle;Max_cycle;Signal;HPM_P1;HPM_P2
2022/12/29 00:01:42;;;;;;;;;;;;;;;9.30;41.51;99701.50;4493706;31;33259;-82
2022/12/29 00:04:10;;;;;;;;;;;;;;;9.73;40.83;99708.62;4483480;32;35014;-82
2022/12/29 00:06:41;;;;;;;;;;;;;;;9.55;40.94;99714.25;4469888;32;35378;-83
2022/12/29 00:09:12;;;;;;;;;;;;;;;9.48;41.19;99714.94;4484202;31;34868;-82
2022/12/29 00:11:39;;;;;;;;;;;;;;;9.36;41.40;99712.91;4493607;31;33369;-80
2022/12/29 00:16:54;;;;;;;;;;;;;;;9.59;41.07;99704.84;4499104;31;35234;-81
2022/12/29 00:36:07;;;;;;;;;;;;;;;9.33;41.00;99707.62;4486475;31;33868;-82
2022/12/29 00:44:10;;;;;;;;;;;;;;;9.61;40.59;99692.81;4481887;32;34234;-82
2022/12/29 00:46:37;;;;;;;;;;;;;;;9.78;40.22;99698.41;4481939;32;33710;-82
2022/12/29 00:51:52;;;;;;;;;;;;;;;9.98;39.38;99707.53;4493198;31;33689;-91
2022/12/29 00:54:19;;;;;;;;;;;;;;;9.83;39.23;99708.03;4468429;32;33308;-82
2022/12/29 00:56:47;;;;;;;;;;;;;;;9.64;39.76;99701.53;4490178;31;34266;-92
2022/12/29 00:59:16;;;;;;;;;;;;;;;9.39;40.23;99696.56;4458938;32;33610;-83
2022/12/29 01:01:44;;;;;;;;;;;;;;;9.55;40.23;99700.44;4478358;31;34493;-93
2022/12/29 01:04:12;;;;;;;;;;;;;;;9.47;40.14;99701.13;4488162;31;34453;-85
2022/12/29 01:06:40;;;;;;;;;;;;;;;9.65;39.99;99700.69;4490908;31;33954;-81
2022/12/29 01:11:54;;;;;;;;;;;;;;;9.43;40.09;99694.13;4498437;31;35326;-94
2022/12/29 01:14:22;;;;;;;;;;;;;;;9.47;40.18;99701.13;4496703;31;34301;-83
2022/12/29 01:16:50;;;;;;;;;;;;;;;9.56;40.20;99695.28;4491639;31;34292;-82
2022/12/29 01:19:17;;;;;;;;;;;;;;;9.44;40.36;99702.75;4489737;31;34462;-82
2022/12/29 01:21:45;;;;;;;;;;;;;;;9.51;40.04;99696.91;4481518;31;34803;-81
2022/12/29 01:24:13;;;;;;;;;;;;;;;9.11;40.99;99694.97;4482384;31;34534;-88
2022/12/29 01:26:40;;;;;;;;;;;;;;;9.02;41.55;99696.47;4488483;31;34191;-82
2022/12/29 01:29:08;;;;;;;;;;;;;;;9.20;41.17;99690.03;4477664;31;33831;-80
2022/12/29 01:31:35;;;;;;;;;;;;;;;9.41;40.75;99693.19;4478210;31;35045;-82
2022/12/29 01:34:03;;;;;;;;;;;;;;;9.51;40.27;99691.72;4492305;31;34412;-81
2022/12/29 01:36:32;;;;;;;;;;;;;;;9.39;40.39;99696.56;4477471;31;33934;-91
2022/12/29 01:38:59;;;;;;;;;;;;;;;9.25;40.74;99696.22;4485214;31;32972;-81
2022/12/29 01:41:26;;;;;;;;;;;;;;;9.25;41.04;99693.63;4492437;31;34120;-83
2022/12/29 01:43:58;;;;;;;;;;;;;;;9.35;40.77;99699.91;4491962;31;33698;-85
2022/12/29 01:46:28;;;;;;;;;;;;;;;9.59;40.24;99695.38;4491311;31;33964;-86
2022/12/29 01:48:59;;;;;;;;;;;;;;;9.49;40.42;99689.06;4488945;31;34343;-93
2022/12/29 01:51:26;;;;;;;;;;;;;;;9.43;40.35;99693.22;4492210;31;34312;-87
2022/12/29 01:53:54;;;;;;;;;;;;;;;9.65;40.08;99689.44;4489208;31;33057;-87
2022/12/29 01:56:22;;;;;;;;;;;;;;;9.65;40.00;99684.28;4482532;32;34461;-94
2022/12/29 01:58:52;;;;;;;;;;;;;;;9.32;40.38;99685.19;4470562;32;35256;-93
2022/12/29 02:01:19;;;;;;;;;;;;;;;9.27;40.72;99681.59;4469920;32;34506;-94
2022/12/29 02:03:47;;;;;;;;;;;;;;;9.53;40.09;99676.22;4476684;31;34672;-84
2022/12/29 02:06:16;;;;;;;;;;;;;;;9.45;40.00;99687.25;4472487;32;33606;-95
2022/12/29 02:08:45;;;;;;;;;;;;;;;9.61;39.71;99678.16;4471576;32;34872;-95
2022/12/29 02:11:12;;;;;;;;;;;;;;;9.45;40.29;99676.03;4471192;32;35199;-81
2022/12/29 02:13:40;;;;;;;;;;;;;;;9.66;39.75;99678.25;4490730;31;33078;-84
2022/12/29 02:16:07;;;;;;;;;;;;;;;9.39;40.10;99661.19;4469438;32;34334;-91
2022/12/29 02:18:50;;;;;;;;;;;;;;;9.46;40.19;99662.22;4469806;32;33851;-94
2022/12/29 02:21:34;;;;;;;;;;;;;;;9.88;39.26;99658.94;4470228;32;34283;-84
2022/12/29 02:24:10;;;;;;;;;;;;;;;9.86;39.00;99658.03;4470227;31;34380;-81
2022/12/29 02:26:58;;;;;;;;;;;;;;;9.70;39.36;99655.09;4499442;31;33885;-90
2022/12/29 02:29:37;;;;;;;;;;;;;;;9.72;39.21;99655.12;4468220;31;34060;-93
2022/12/29 02:32:07;;;;;;;;;;;;;;;9.40;39.68;99649.16;4500773;31;34656;-87
2022/12/29 02:34:37;;;;;;;;;;;;;;;9.35;40.10;99648.16;4497695;31;33759;-82
2022/12/29 02:37:15;;;;;;;;;;;;;;;9.19;40.50;99642.59;4500752;31;34578;-81
2022/12/29 02:39:46;;;;;;;;;;;;;;;9.52;39.99;99646.88;4500421;31;35117;-89
2022/12/29 02:42:16;;;;;;;;;;;;;;;9.66;39.54;99642.00;4498285;31;34559;-93
2022/12/29 02:45:16;;;;;;;;;;;;;;;9.41;39.70;99637.97;4484846;31;33454;-92
2022/12/29 02:48:03;;;;;;;;;;;;;;;9.57;39.63;99634.91;4465425;31;34940;-93
2022/12/29 02:50:35;;;;;;;;;;;;;;;9.63;39.60;99640.25;4484186;31;35205;-82
2022/12/29 02:53:04;;;;;;;;;;;;;;;9.53;39.31;99637.38;4480440;31;33846;-93
2022/12/29 02:55:33;;;;;;;;;;;;;;;9.32;39.70;99629.94;4474215;32;33574;-92
2022/12/29 02:58:13;;;;;;;;;;;;;;;9.21;40.03;99629.72;4484636;32;35059;-81
2022/12/29 03:00:45;;;;;;;;;;;;;;;9.27;40.01;99628.13;4488921;31;34152;-91
2022/12/29 03:03:21;;;;;;;;;;;;;;;9.46;39.60;99628.59;4470755;32;34526;-93
2022/12/29 03:06:07;;;;;;;;;;;;;;;9.26;39.61;99623.78;4484091;32;34376;-85
2022/12/29 03:08:35;;;;;;;;;;;;;;;9.12;40.11;99619.97;4483971;32;35062;-94
2022/12/29 03:11:04;;;;;;;;;;;;;;;9.28;39.77;99631.62;4492795;31;35284;-95
2022/12/29 03:16:34;;;;;;;;;;;;;;;8.77;41.68;99637.16;4484971;31;33734;-94
2022/12/29 03:19:05;;;;;;;;;;;;;;;7.98;43.70;99633.09;4484624;31;34193;-83
2022/12/29 03:24:25;;;;;;;;;;;;;;;6.92;46.94;99633.94;4487513;31;35484;-91
2022/12/29 03:26:55;;;;;;;;;;;;;;;6.69;47.98;99631.44;4485852;31;33123;-81
2022/12/29 03:29:22;;;;;;;;;;;;;;;6.21;49.50;99625.38;4483946;31;34178;-79
2022/12/29 03:31:49;;;;;;;;;;;;;;;6.75;48.51;99620.47;4499144;31;34466;-89
2022/12/29 03:34:17;;;;;;;;;;;;;;;6.82;47.81;99625.03;4485742;31;35262;-86
2022/12/29 03:36:50;;;;;;;;;;;;;;;7.47;46.30;99615.16;4485395;31;33725;-94
2022/12/29 03:39:17;;;;;;;;;;;;;;;6.36;48.23;99630.22;4498263;31;34258;-92
2022/12/29 03:41:45;;;;;;;;;;;;;;;6.32;49.50;99630.09;4492146;31;34032;-92
2022/12/29 03:44:13;;;;;;;;;;;;;;;5.66;50.89;99628.37;4485407;31;34523;-81
2022/12/29 03:46:40;;;;;;;;;;;;;;;5.27;52.36;99620.81;4479338;32;34572;-81
2022/12/29 03:49:08;;;;;;;;;;;;;;;4.90;52.88;99619.28;4485896;31;34549;-82
2022/12/29 03:51:35;;;;;;;;;;;;;;;5.03;53.11;99611.25;4498237;31;33685;-80
2022/12/29 03:54:04;;;;;;;;;;;;;;;5.19;52.74;99620.50;4499436;31;34372;-94
2022/12/29 03:56:32;;;;;;;;;;;;;;;5.37;52.38;99618.66;4498150;31;33625;-81
2022/12/29 03:59:01;;;;;;;;;;;;;;;6.18;50.40;99622.69;4499782;31;33756;-94
2022/12/29 04:01:28;;;;;;;;;;;;;;;6.14;49.99;99624.28;4498319;31;34617;-82
2022/12/29 04:03:56;;;;;;;;;;;;;;;6.31;49.71;99624.91;4488189;31;35827;-82
2022/12/29 04:06:23;;;;;;;;;;;;;;;5.72;50.84;99620.87;4487635;31;34267;-89
2022/12/29 04:08:51;;;;;;;;;;;;;;;5.19;52.81;99619.59;4499783;31;33535;-83
2022/12/29 04:11:19;;;;;;;;;;;;;;;5.26;52.83;99624.19;4498718;31;33810;-83
2022/12/29 04:13:46;;;;;;;;;;;;;;;5.34;52.36;99623.69;4499489;31;34549;-82
2022/12/29 04:16:14;;;;;;;;;;;;;;;5.89;50.70;99630.16;4498206;31;33511;-81
2022/12/29 04:18:42;;;;;;;;;;;;;;;6.30;49.77;99620.56;4453748;32;33961;-81
2022/12/29 04:21:09;;;;;;;;;;;;;;;5.83;50.69;99612.78;4479098;31;34452;-82
2022/12/29 04:23:38;;;;;;;;;;;;;;;5.65;51.03;99617.22;4488942;31;34102;-81
2022/12/29 04:26:09;;;;;;;;;;;;;;;5.76;51.18;99621.09;4485951;31;34359;-90
2022/12/29 04:28:37;;;;;;;;;;;;;;;5.75;50.99;99624.44;4499461;31;33872;-81
2022/12/29 04:31:05;;;;;;;;;;;;;;;6.06;50.13;99634.28;4496474;31;34345;-94
2022/12/29 04:33:33;;;;;;;;;;;;;;;6.67;48.78;99627.94;4485552;31;34583;-87
2022/12/29 04:36:01;;;;;;;;;;;;;;;6.92;48.04;99621.06;4498981;31;33539;-80
2022/12/29 04:38:28;;;;;;;;;;;;;;;7.30;47.02;99615.47;4499317;31;35033;-83
2022/12/29 04:40:58;;;;;;;;;;;;;;;7.12;47.40;99611.41;4496023;31;35262;-84
2022/12/29 04:43:26;;;;;;;;;;;;;;;6.14;49.65;99624.28;4499354;31;34788;-84
2022/12/29 04:45:54;;;;;;;;;;;;;;;6.82;48.23;99617.31;4485045;31;33279;-94
2022/12/29 04:48:22;;;;;;;;;;;;;;;6.33;49.22;99619.00;4469621;32;34911;-82
2022/12/29 04:50:50;;;;;;;;;;;;;;;6.85;48.03;99609.66;4488230;31;34050;-95
2022/12/29 04:53:17;;;;;;;;;;;;;;;6.79;48.05;99607.75;4499267;31;34283;-82
2022/12/29 04:55:48;;;;;;;;;;;;;;;7.10;47.47;99611.38;4500429;31;34730;-81
2022/12/29 04:58:15;;;;;;;;;;;;;;;7.49;46.72;99608.34;4499396;31;34212;-91
2022/12/29 05:00:50;;;;;;;;;;;;;;;6.69;48.51;99610.81;4496532;31;34078;-82
2022/12/29 05:03:17;;;;;;;;;;;;;;;6.39;49.05;99614.88;4483263;31;34152;-95
2022/12/29 05:05:45;;;;;;;;;;;;;;;5.79;50.52;99618.59;4480665;31;33542;-95
2022/12/29 05:08:12;;;;;;;;;;;;;;;6.45;49.04;99608.25;4498842;31;34089;-82
2022/12/29 05:10:43;;;;;;;;;;;;;;;6.38;49.42;99618.28;4494200;31;34894;-82
2022/12/29 05:13:11;;;;;;;;;;;;;;;5.44;51.68;99603.50;4482967;32;34940;-92
2022/12/29 05:15:38;;;;;;;;;;;;;;;5.25;52.20;99607.88;4482491;31;34378;-91
2022/12/29 05:18:06;;;;;;;;;;;;;;;5.59;51.62;99615.25;4469121;32;34889;-82
2022/12/29 05:20:33;;;;;;;;;;;;;;;5.40;51.87;99617.03;4476829;31;34438;-86
2022/12/29 05:23:02;;;;;;;;;;;;;;;6.16;50.22;99620.06;4498625;31;34152;-81
2022/12/29 05:25:29;;;;;;;;;;;;;;;5.07;52.65;99614.81;4495435;31;33402;-91
2022/12/29 05:27:57;;;;;;;;;;;;;;;5.17;52.18;99618.66;4483120;32;33655;-95
2022/12/29 05:30:25;;;;;;;;;;;;;;;4.78;53.65;99626.47;4485233;31;33761;-96
2022/12/29 05:32:52;;;;;;;;;;;;;;;5.09;53.05;99616.66;4500212;31;34598;-81
2022/12/29 05:35:19;;;;;;;;;;;;;;;5.15;52.77;99613.44;4500658;31;34430;-81
2022/12/29 05:37:47;;;;;;;;;;;;;;;4.37;54.94;99617.81;4499114;31;33873;-81
2022/12/29 05:40:14;;;;;;;;;;;;;;;4.61;54.83;99618.88;4500399;31;34521;-80
2022/12/29 05:42:44;;;;;;;;;;;;;;;3.51;57.78;99616.41;4499182;31;33868;-81
2022/12/29 05:45:11;;;;;;;;;;;;;;;3.71;56.73;99617.34;4496605;31;33817;-82
2022/12/29 05:47:40;;;;;;;;;;;;;;;3.63;57.07;99619.56;4485609;31;33478;-80
2022/12/29 05:50:07;;;;;;;;;;;;;;;3.90;56.17;99604.59;4499123;31;34879;-82
2022/12/29 05:52:38;;;;;;;;;;;;;;;3.50;57.99;99616.34;4492019;31;34429;-82
2022/12/29 05:55:05;;;;;;;;;;;;;;;4.24;56.34;99602.66;4484787;32;33427;-91
2022/12/29 05:57:34;;;;;;;;;;;;;;;4.25;56.08;99601.88;4490674;31;34749;-82
2022/12/29 06:00:03;;;;;;;;;;;;;;;4.06;56.59;99600.19;4475359;32;34449;-84
2022/12/29 06:02:40;;;;;;;;;;;;;;;3.96;56.41;99593.72;4472002;32;34384;-95
2022/12/29 06:05:08;;;;;;;;;;;;;;;3.98;57.12;99597.25;4458783;32;32225;-81
2022/12/29 06:07:36;;;;;;;;;;;;;;;3.44;58.30;99598.09;4491572;31;33578;-81
2022/12/29 06:10:04;;;;;;;;;;;;;;;4.19;55.94;99592.22;4487652;31;34490;-92
2022/12/29 06:12:32;;;;;;;;;;;;;;;4.49;55.31;99595.25;4501549;31;34299;-92
2022/12/29 06:15:00;;;;;;;;;;;;;;;4.41;54.65;99603.44;4499540;31;34683;-81
2022/12/29 06:17:27;;;;;;;;;;;;;;;4.18;56.13;99600.72;4491096;31;33831;-90
2022/12/29 06:19:54;;;;;;;;;;;;;;;4.20;56.23;99604.22;4501292;31;34099;-92
2022/12/29 06:22:22;;;;;;;;;;;;;;;4.59;54.92;99597.41;4501286;31;34250;-80
2022/12/29 06:24:49;;;;;;;;;;;;;;;4.52;55.11;99591.94;4492574;31;34217;-89
2022/12/29 06:27:18;;;;;;;;;;;;;;;3.98;56.40;99606.63;4485112;31;35086;-86
2022/12/29 06:29:47;;;;;;;;;;;;;;;3.72;57.87;99608.88;4499359;31;32822;-89
2022/12/29 06:32:14;;;;;;;;;;;;;;;4.14;56.67;99606.53;4500480;31;34305;-93
2022/12/29 06:34:44;;;;;;;;;;;;;;;3.40;59.23;99623.59;4495356;31;34316;-91
2022/12/29 06:37:13;;;;;;;;;;;;;;;3.86;57.49;99622.31;4488365;31;35004;-92
2022/12/29 06:39:40;;;;;;;;;;;;;;;4.26;56.64;99612.19;4500530;31;34963;-81
2022/12/29 06:42:09;;;;;;;;;;;;;;;4.44;55.73;99613.84;4484277;31;34905;-87
2022/12/29 06:44:37;;;;;;;;;;;;;;;4.05;56.83;99611.22;4500929;31;34192;-94
2022/12/29 06:47:04;;;;;;;;;;;;;;;4.63;55.08;99616.41;4495841;31;33996;-86
2022/12/29 06:49:32;;;;;;;;;;;;;;;4.30;56.07;99623.50;4500609;31;34340;-88
2022/12/29 06:52:00;;;;;;;;;;;;;;;4.63;55.21;99616.41;4495571;31;34863;-82
2022/12/29 06:54:27;;;;;;;;;;;;;;;3.96;57.43;99626.22;4500424;31;33424;-82
2022/12/29 06:56:55;;;;;;;;;;;;;;;4.40;56.30;99625.66;4499037;31;34857;-91
2022/12/29 06:59:22;;;;;;;;;;;;;;;4.55;55.49;99643.44;4499070;31;35057;-84
2022/12/29 07:01:49;;;;;;;;;;;;;;;4.74;55.23;99633.16;4472952;32;34223;-83
2022/12/29 07:04:17;;;;;;;;;;;;;;;5.03;54.27;99633.50;4470717;32;34419;-93
2022/12/29 07:06:44;;;;;;;;;;;;;;;5.27;53.44;99626.84;4470467;31;35078;-92
2022/12/29 07:09:11;;;;;;;;;;;;;;;4.67;54.93;99630.25;4497677;31;34394;-94
2022/12/29 07:11:39;;;;;;;;;;;;;;;5.17;53.94;99631.53;4499418;31;35156;-83
2022/12/29 07:14:06;;;;;;;;;;;;;;;5.27;53.69;99633.66;4500044;31;33524;-92
2022/12/29 07:16:34;;;;;;;;;;;;;;;4.66;55.05;99639.66;4499358;31;34556;-80
2022/12/29 07:19:01;;;;;;;;;;;;;;;3.74;57.92;99639.72;4495732;31;35351;-91
2022/12/29 07:21:29;;;;;;;;;;;;;;;4.62;55.75;99643.78;4499871;31;34661;-84
2022/12/29 07:23:56;;;;;;;;;;;;;;;4.76;55.32;99643.47;4486184;31;33897;-85
2022/12/29 07:26:24;;;;;;;;;;;;;;;4.49;56.18;99638.03;4499890;31;33953;-83
2022/12/29 07:28:51;;;;;;;;;;;;;;;4.87;55.31;99638.00;4497262;31;35232;-83
2022/12/29 07:31:19;;;;;;;;;;;;;;;4.96;54.28;99631.50;4492192;31;34486;-95
2022/12/29 07:33:47;;;;;;;;;;;;;;;4.11;56.68;99629.47;4483966;32;33724;-96
2022/12/29 07:36:16;;;;;;;;;;;;;;;4.16;57.04;99633.13;4485767;31;34957;-92
2022/12/29 07:38:44;;;;;;;;;;;;;;;4.49;56.29;99636.31;4487041;31;34455;-90
2022/12/29 07:41:11;;;;;;;;;;;;;;;4.77;54.92;99641.00;4499023;31;34408;-81
2022/12/29 07:43:39;;;;;;;;;;;;;;;4.47;56.15;99637.97;4499361;31;33678;-85
2022/12/29 07:46:08;;;;;;;;;;;;;;;4.74;56.20;99640.88;4498415;31;34866;-93
2022/12/29 07:48:56;;;;;;;;;;;;;;;4.00;57.52;99635.81;4497884;31;34874;-82
2022/12/29 07:51:23;;;;;;;;;;;;;;;4.85;55.63;99634.50;4490991;31;35113;-93
2022/12/29 07:53:50;;;;;;;;;;;;;;;5.22;54.91;99630.88;4467020;32;33746;-91
2022/12/29 07:56:18;;;;;;;;;;;;;;;5.16;54.17;99635.78;4492818;31;33976;-83
2022/12/29 07:58:45;;;;;;;;;;;;;;;4.82;55.26;99638.62;4494832;31;34348;-94
2022/12/29 08:01:12;;;;;;;;;;;;;;;5.84;52.80;99641.97;4498970;31;34290;-82
2022/12/29 08:03:41;;;;;;;;;;;;;;;5.25;54.10;99635.28;4487428;31;33749;-82
2022/12/29 08:06:12;;;;;;;;;;;;;;;5.89;51.91;99642.13;4472659;32;34019;-93
2022/12/29 08:08:40;;;;;;;;;;;;;;;5.95;52.14;99642.41;4467828;31;34329;-85
2022/12/29 08:11:07;;;;;;;;;;;;;;;5.98;52.22;99637.38;4468024;32;34193;-82
2022/12/29 08:13:34;;;;;;;;;;;;;;;5.48;53.71;99633.66;4477939;31;33454;-93
2022/12/29 08:16:02;;;;;;;;;;;;;;;5.36;53.55;99634.03;4474221;31;34898;-87
2022/12/29 08:18:29;;;;;;;;;;;;;;;4.92;54.95;99634.75;4476240;31;34309;-90
2022/12/29 08:21:00;;;;;;;;;;;;;;;5.97;52.38;99633.03;4491278;31;35049;-93
2022/12/29 08:23:28;;;;;;;;;;;;;;;4.64;56.12;99634.44;4471267;31;34151;-86
2022/12/29 08:25:59;;;;;;;;;;;;;;;4.61;56.02;99630.84;4476426;31;34142;-92
2022/12/29 08:28:26;;;;;;;;;;;;;;;5.09;54.79;99620.94;4453246;31;34221;-82
2022/12/29 08:30:56;;;;;;;;;;;;;;;4.74;55.75;99619.44;4491338;31;34994;-93
2022/12/29 08:33:24;;;;;;;;;;;;;;;4.89;55.52;99620.09;4474038;32;33312;-87
2022/12/29 08:35:51;;;;;;;;;;;;;;;5.46;54.14;99622.44;4475098;31;34841;-82
2022/12/29 08:38:18;;;;;;;;;;;;;;;5.45;53.86;99618.97;4470228;32;34183;-85
2022/12/29 08:40:45;;;;;;;;;;;;;;;5.75;53.29;99609.00;4478445;32;34461;-81
2022/12/29 08:43:13;;;;;;;;;;;;;;;5.36;54.20;99606.63;4469910;32;33399;-81
2022/12/29 08:45:44;;;;;;;;;;;;;;;4.93;55.27;99618.53;4471669;31;34171;-80
2022/12/29 08:48:12;;;;;;;;;;;;;;;5.07;55.25;99605.41;4474192;31;34330;-88
2022/12/29 08:50:39;;;;;;;;;;;;;;;4.51;56.63;99614.19;4480491;32;35240;-83
2022/12/29 08:53:06;;;;;;;;;;;;;;;4.47;57.24;99624.22;4476323;31;34048;-86
2022/12/29 08:55:34;;;;;;;;;;;;;;;4.80;55.93;99620.56;4478092;31;34804;-80
2022/12/29 08:58:01;;;;;;;;;;;;;;;5.28;54.63;99615.72;4481442;31;33768;-82
2022/12/29 09:00:28;;;;;;;;;;;;;;;5.59;54.30;99616.97;4481079;31;35265;-81
2022/12/29 09:02:56;;;;;;;;;;;;;;;5.48;54.59;99615.66;4483135;31;33800;-88
2022/12/29 09:05:23;;;;;;;;;;;;;;;5.69;54.12;99608.78;4478208;31;34699;-85
2022/12/29 09:07:51;;;;;;;;;;;;;;;5.48;54.29;99606.25;4463700;31;33629;-91
2022/12/29 09:10:18;;;;;;;;;;;;;;;6.49;52.40;99592.09;4491887;31;34526;-87
2022/12/29 09:12:46;;;;;;;;;;;;;;;6.25;52.41;99601.47;4485196;31;33681;-84
2022/12/29 09:15:15;;;;;;;;;;;;;;;5.44;53.78;99599.22;4489859;31;34845;-87
2022/12/29 09:17:45;;;;;;;;;;;;;;;5.85;53.68;99598.25;4483858;31;34221;-89
2022/12/29 09:20:13;;;;;;;;;;;;;;;6.57;51.62;99589.78;4481575;31;36518;-90
2022/12/29 09:22:41;;;;;;;;;;;;;;;6.53;51.34;99581.06;4492134;31;33706;-90
2022/12/29 09:25:08;;;;;;;;;;;;;;;6.42;52.26;99594.38;4492187;31;34430;-89
2022/12/29 09:27:36;;;;;;;;;;;;;;;7.01;51.02;99582.72;4484000;32;33863;-87
2022/12/29 09:30:05;;;;;;;;;;;;;;;7.18;50.14;99585.84;4477352;32;33924;-92
2022/12/29 09:32:33;;;;;;;;;;;;;;;7.52;49.18;99580.06;4481796;32;33431;-84
2022/12/29 09:35:04;;;;;;;;;;;;;;;5.86;52.99;99582.00;4483628;32;34823;-81
2022/12/29 09:37:31;;;;;;;;;;;;;;;5.47;54.86;99572.75;4483780;32;35263;-82
2022/12/29 09:39:59;;;;;;;;;;;;;;;6.08;53.12;99568.28;4483528;32;34390;-80
2022/12/29 09:42:53;;;;;;;;;;;;;;;6.02;53.81;99568.06;4480937;32;33329;-85
2022/12/29 09:45:23;;;;;;;;;;;;;;;7.10;50.81;99558.94;4464182;32;34671;-81
2022/12/29 09:47:50;;;;;;;;;;;;;;;6.52;52.04;99552.69;4468478;32;34128;-80
2022/12/29 09:50:17;;;;;;;;;;;;;;;5.94;53.79;99566.00;4482234;31;34337;-85
2022/12/29 09:53:05;;;;;;;;;;;;;;;6.07;52.79;99561.38;4474355;31;33829;-88
2022/12/29 09:55:37;;;;;;;;;;;;;;;6.41;52.31;99552.31;4468412;31;34599;-84
2022/12/29 09:58:14;;;;;;;;;;;;;;;5.58;54.19;99553.47;4468558;31;34063;-90
2022/12/29 10:00:47;;;;;;;;;;;;;;;5.44;55.12;99554.62;4467638;32;35772;-89
2022/12/29 10:03:22;;;;;;;;;;;;;;;6.38;52.44;99551.31;4477491;31;33295;-92
2022/12/29 10:06:02;;;;;;;;;;;;;;;6.58;51.96;99547.72;4467385;31;34905;-86
2022/12/29 10:08:35;;;;;;;;;;;;;;;6.68;51.36;99543.78;4478915;32;34796;-89
2022/12/29 10:11:21;;;;;;;;;;;;;;;6.55;51.70;99540.81;4466429;31;35197;-83
2022/12/29 10:13:54;;;;;;;;;;;;;;;5.91;53.96;99548.75;4481343;31;33276;-87
2022/12/29 10:16:43;;;;;;;;;;;;;;;5.51;55.15;99551.50;4480918;31;33626;-91
2022/12/29 10:19:23;;;;;;;;;;;;;;;6.17;53.57;99547.12;4467485;32;34357;-90
2022/12/29 10:21:57;;;;;;;;;;;;;;;6.92;51.64;99541.16;4480230;32;35086;-81
2022/12/29 10:24:24;;;;;;;;;;;;;;;6.79;51.63;99532.16;4480323;31;33330;-88
2022/12/29 10:26:52;;;;;;;;;;;;;;;6.22;52.97;99534.47;4468122;32;34048;-84
2022/12/29 10:29:20;;;;;;;;;;;;;;;6.30;53.44;99522.72;4480342;32;34315;-86
2022/12/29 10:31:49;;;;;;;;;;;;;;;7.37;50.85;99528.00;4478218;31;33827;-86
2022/12/29 10:34:22;;;;;;;;;;;;;;;7.46;50.33;99516.28;4481793;31;33217;-85
2022/12/29 10:37:13;;;;;;;;;;;;;;;6.66;51.75;99523.09;4482780;31;34755;-90
2022/12/29 10:39:43;;;;;;;;;;;;;;;7.63;49.87;99527.09;4470371;31;34789;-89
2022/12/29 10:42:15;;;;;;;;;;;;;;;8.38;47.68;99512.91;4472237;32;34093;-89
2022/12/29 10:44:42;;;;;;;;;;;;;;;8.29;48.02;99514.34;4478083;31;33683;-87
2022/12/29 10:47:12;;;;;;;;;;;;;;;7.34;50.38;99520.16;4482364;31;33945;-93
2022/12/29 10:49:40;;;;;;;;;;;;;;;7.64;49.56;99515.94;4480617;32;34997;-88
2022/12/29 10:52:09;;;;;;;;;;;;;;;7.46;50.33;99516.28;4478394;32;35046;-89
2022/12/29 10:55:03;;;;;;;;;;;;;;;6.58;52.85;99519.41;4470472;32;33738;-90
2022/12/29 10:57:31;;;;;;;;;;;;;;;6.76;52.59;99516.56;4480968;31;33684;-85
2022/12/29 10:59:59;;;;;;;;;;;;;;;6.28;54.05;99501.19;4468425;32;34508;-83
2022/12/29 11:02:32;;;;;;;;;;;;;;;6.67;52.99;99496.53;4469377;32;33967;-91
2022/12/29 11:05:04;;;;;;;;;;;;;;;7.20;51.54;99496.53;4483329;31;33578;-90
2022/12/29 11:07:31;;;;;;;;;;;;;;;8.40;48.90;99500.88;4467216;32;34079;-91
2022/12/29 11:10:17;;;;;;;;;;;;;;;7.91;49.88;99505.53;4468017;32;34850;-87
2022/12/29 11:13:05;;;;;;;;;;;;;;;8.06;49.22;99502.50;4467790;32;34168;-91
2022/12/29 11:15:43;;;;;;;;;;;;;;;7.55;50.49;99501.06;4469155;32;32600;-90
2022/12/29 11:18:21;;;;;;;;;;;;;;;8.09;48.64;99502.59;4475074;32;35074;-90
2022/12/29 11:20:49;;;;;;;;;;;;;;;8.11;48.83;99498.37;4469398;32;35210;-91
2022/12/29 11:23:34;;;;;;;;;;;;;;;7.44;50.29;99496.41;4468891;32;34246;-90
2022/12/29 11:26:07;;;;;;;;;;;;;;;6.51;53.02;99499.41;4470883;32;33404;-83
2022/12/29 11:28:35;;;;;;;;;;;;;;;6.55;52.97;99494.44;4469391;32;33887;-85
2022/12/29 11:31:03;;;;;;;;;;;;;;;6.97;52.20;99488.03;4469033;32;33857;-91
2022/12/29 11:33:37;;;;;;;;;;;;;;;6.98;52.24;99482.09;4466314;32;34362;-89
2022/12/29 11:36:15;;;;;;;;;;;;;;;7.16;51.51;99468.88;4474443;31;33755;-86
2022/12/29 11:38:46;;;;;;;;;;;;;;;7.77;50.25;99468.16;4478766;31;34460;-90
2022/12/29 11:41:13;;;;;;;;;;;;;;;8.82;47.76;99469.22;4465228;32;35105;-91
2022/12/29 11:43:41;;;;;;;;;;;;;;;8.32;48.21;99473.94;4467672;32;34233;-91
2022/12/29 11:46:18;;;;;;;;;;;;;;;7.86;49.31;99470.09;4470088;31;33662;-85
2022/12/29 11:48:46;;;;;;;;;;;;;;;7.35;51.30;99465.16;4480966;32;34789;-89
2022/12/29 11:51:13;;;;;;;;;;;;;;;5.82;55.58;99464.34;4473324;31;34788;-89
2022/12/29 11:53:44;;;;;;;;;;;;;;;6.53;53.99;99460.00;4480677;31;33836;-93
2022/12/29 11:56:13;;;;;;;;;;;;;;;7.02;52.69;99476.19;4492118;31;33657;-88
2022/12/29 11:58:40;;;;;;;;;;;;;;;6.05;55.05;99480.66;4464697;32;34176;-89
2022/12/29 12:01:16;;;;;;;;;;;;;;;7.01;53.01;99471.88;4469123;32;34128;-82
2022/12/29 12:03:59;;;;;;;;;;;;;;;6.43;54.25;99477.66;4469372;32;34220;-90
2022/12/29 12:06:27;;;;;;;;;;;;;;;7.54;51.58;99482.97;4471627;32;33068;-84
2022/12/29 12:09:06;;;;;;;;;;;;;;;7.57;51.16;99473.56;4474285;32;34931;-93
2022/12/29 12:11:37;;;;;;;;;;;;;;;7.53;50.78;99463.12;4472030;31;34446;-93
2022/12/29 12:14:17;;;;;;;;;;;;;;;7.62;50.69;99465.13;4482956;31;34510;-83
2022/12/29 12:16:48;;;;;;;;;;;;;;;7.91;50.01;99468.53;4488760;31;33083;-93
2022/12/29 12:19:15;;;;;;;;;;;;;;;6.85;52.53;99456.72;4485142;31;34258;-89
2022/12/29 12:21:43;;;;;;;;;;;;;;;7.53;50.56;99453.69;4489450;31;34424;-83
2022/12/29 12:24:20;;;;;;;;;;;;;;;6.73;53.12;99446.91;4469778;32;33973;-84
2022/12/29 12:26:47;;;;;;;;;;;;;;;6.45;54.03;99466.59;4483312;31;33735;-84
2022/12/29 12:29:16;;;;;;;;;;;;;;;6.17;54.78;99462.19;4487107;31;35128;-94
2022/12/29 12:31:45;;;;;;;;;;;;;;;6.38;54.47;99458.63;4478336;32;34469;-93
2022/12/29 12:34:24;;;;;;;;;;;;;;;6.15;54.78;99443.25;4473507;31;34962;-93
2022/12/29 12:37:10;;;;;;;;;;;;;;;7.63;51.17;99434.19;4469727;31;33431;-80
2022/12/29 12:39:41;;;;;;;;;;;;;;;6.92;52.67;99427.75;4479493;31;34942;-91
2022/12/29 12:42:11;;;;;;;;;;;;;;;6.91;52.93;99428.59;4483172;31;34257;-95
2022/12/29 12:44:50;;;;;;;;;;;;;;;6.99;52.33;99429.69;4467473;32;35359;-93
2022/12/29 12:47:27;;;;;;;;;;;;;;;7.54;51.14;99421.91;4453049;32;33398;-82
2022/12/29 12:50:11;;;;;;;;;;;;;;;8.32;49.63;99425.75;4486627;31;33926;-84
2022/12/29 12:52:49;;;;;;;;;;;;;;;7.97;50.19;99415.38;4492630;31;33739;-93
2022/12/29 12:55:16;;;;;;;;;;;;;;;7.99;50.09;99417.97;4480989;31;34314;-80
2022/12/29 12:58:05;;;;;;;;;;;;;;;8.73;48.68;99423.34;4491817;31;33793;-84
2022/12/29 13:00:34;;;;;;;;;;;;;;;9.29;47.46;99420.34;4489211;31;34684;-96
2022/12/29 13:03:05;;;;;;;;;;;;;;;8.74;48.37;99422.50;4476086;31;32746;-94
2022/12/29 13:05:36;;;;;;;;;;;;;;;9.30;47.14;99422.06;4470626;32;34504;-92
2022/12/29 13:08:06;;;;;;;;;;;;;;;8.83;48.44;99424.47;4489569;31;33397;-93
2022/12/29 13:10:34;;;;;;;;;;;;;;;9.06;47.84;99428.47;4488564;31;34043;-94
2022/12/29 13:13:20;;;;;;;;;;;;;;;9.84;46.00;99413.69;4498103;31;34204;-95
2022/12/29 13:15:56;;;;;;;;;;;;;;;9.18;46.89;99413.22;4499093;31;35146;-94
2022/12/29 13:18:29;;;;;;;;;;;;;;;9.93;45.91;99421.66;4468353;32;33584;-92
2022/12/29 13:21:02;;;;;;;;;;;;;;;9.87;46.02;99418.94;4484727;31;34567;-93
2022/12/29 13:23:36;;;;;;;;;;;;;;;10.25;44.84;99424.88;4476217;32;35405;-94
2022/12/29 13:26:14;;;;;;;;;;;;;;;9.20;47.37;99423.56;4471088;31;35141;-86
2022/12/29 13:28:54;;;;;;;;;;;;;;;8.72;47.71;99431.97;4490365;31;34056;-91
2022/12/29 13:31:30;;;;;;;;;;;;;;;8.23;50.02;99434.12;4470424;32;33582;-93
2022/12/29 13:34:06;;;;;;;;;;;;;;;8.85;48.58;99438.28;4467285;32;35309;-84
2022/12/29 13:36:36;;;;;;;;;;;;;;;9.17;47.67;99442.50;4474491;31;33993;-89
2022/12/29 13:39:05;;;;;;;;;;;;;;;9.49;46.78;99435.44;4478287;31;33637;-93
2022/12/29 13:41:36;;;;;;;;;;;;;;;9.46;46.71;99432.78;4469323;31;34317;-92
2022/12/29 13:44:03;;;;;;;;;;;;;;;10.11;45.44;99434.94;4483261;31;34273;-93
2022/12/29 13:46:34;;;;;;;;;;;;;;;9.79;45.81;99434.34;4470843;31;35637;-93
2022/12/29 13:49:12;;;;;;;;;;;;;;;9.36;46.61;99428.25;4481068;31;33622;-92
2022/12/29 13:51:44;;;;;;;;;;;;;;;10.39;44.33;99422.53;4477158;31;34058;-86